Time;durP1;ratioP1;P1;durP2;ratioP2;P2;SDS_P1;SDS_P2;PMS_P1;PMS_P2;Temp;Humidity;BMP_temperature;BMP_pressure;BME280_temperature;BME280_humidity;BME280_pressure;Samples;Min_cycle;Max_cycle;Signal;HPM_P1;HPM_P2
2022/09/01 00:00:22;;;;;;;;;;;16.90;90.10;;;;;;5122080;28;20297;-70
2022/09/01 00:02:49;;;;;;;;;;;16.90;90.10;;;;;;5129355;28;19926;-70
2022/09/01 00:05:15;;;;;;;;;;;16.90;90.10;;;;;;5117157;28;20565;-70
2022/09/01 00:07:40;;;;;;;;;;;16.90;90.20;;;;;;5124112;28;20010;-70
2022/09/01 00:10:07;;;;;;;;;;;16.80;90.20;;;;;;5126332;27;19930;-70
2022/09/01 00:12:32;;;;;;;;;;;16.80;90.30;;;;;;5127433;27;19981;-70
2022/09/01 00:14:58;;;;;;;;;;;16.70;90.20;;;;;;5113321;28;20473;-70
2022/09/01 00:17:24;;;;;;;;;;;16.80;90.40;;;;;;5119533;27;19927;-70
2022/09/01 00:19:49;;;;;;;;;;;16.70;90.20;;;;;;5102902;28;19926;-71
2022/09/01 00:22:15;;;;;;;;;;;16.80;90.70;;;;;;5132955;27;19919;-70
2022/09/01 00:24:40;;;;;;;;;;;16.70;90.30;;;;;;5120414;27;20374;-70
2022/09/01 00:27:06;;;;;;;;;;;16.70;90.40;;;;;;5119239;27;19930;-70
2022/09/01 00:29:31;;;;;;;;;;;16.70;90.50;;;;;;5121003;27;19926;-71
2022/09/01 00:31:57;;;;;;;;;;;16.70;90.30;;;;;;5132030;27;19919;-70
2022/09/01 00:34:22;;;;;;;;;;;16.70;90.30;;;;;;5121079;27;19919;-70
2022/09/01 00:36:48;;;;;;;;;;;16.70;90.20;;;;;;5118874;27;19930;-70
2022/09/01 00:39:14;;;;;;;;;;;16.70;90.10;;;;;;5133525;27;20407;-71
2022/09/01 00:41:41;;;;;;;;;;;16.80;90.30;;;;;;5114123;27;19920;-69
2022/09/01 00:44:10;;;;;;;;;;;16.80;90.30;;;;;;5125451;27;19929;-70
2022/09/01 00:46:38;;;;;;;;;;;16.80;90.60;;;;;;5133223;27;20002;-70
2022/09/01 00:49:03;;;;;;;;;;;16.70;90.40;;;;;;5119793;27;19923;-71
2022/09/01 00:51:30;;;;;;;;;;;16.70;90.30;;;;;;5126379;27;19946;-69
2022/09/01 00:53:57;;;;;;;;;;;16.70;90.30;;;;;;5125232;27;20010;-70
2022/09/01 00:56:23;;;;;;;;;;;16.70;90.30;;;;;;5112907;27;19933;-71
2022/09/01 00:58:49;;;;;;;;;;;16.70;90.40;;;;;;5112472;28;19923;-70
2022/09/01 01:01:14;;;;;;;;;;;16.70;90.30;;;;;;5119415;27;20609;-70
2022/09/01 01:03:43;;;;;;;;;;;16.70;90.40;;;;;;5093728;28;19930;-70
2022/09/01 01:06:09;;;;;;;;;;;16.60;90.50;;;;;;5112485;27;19973;-70
2022/09/01 01:08:37;;;;;;;;;;;16.60;90.70;;;;;;5113025;27;19920;-70
2022/09/01 01:11:16;;;;;;;;;;;16.60;90.60;;;;;;5125369;27;19930;-70
2022/09/01 01:13:48;;;;;;;;;;;16.60;90.80;;;;;;5115417;27;20029;-71
2022/09/01 01:16:14;;;;;;;;;;;16.60;90.70;;;;;;5122392;27;19926;-70
2022/09/01 01:18:40;;;;;;;;;;;16.60;90.80;;;;;;5115402;27;20444;-70
2022/09/01 01:23:57;;;;;;;;;;;16.60;90.80;;;;;;5125535;27;19919;-70
2022/09/01 01:26:22;;;;;;;;;;;16.60;90.60;;;;;;5107343;27;20561;-70
2022/09/01 01:28:51;;;;;;;;;;;16.60;90.60;;;;;;5119583;27;20014;-70
2022/09/01 01:31:17;;;;;;;;;;;16.60;90.70;;;;;;5131158;27;19919;-70
2022/09/01 01:33:47;;;;;;;;;;;16.60;90.60;;;;;;5119692;27;19925;-71
2022/09/01 01:36:15;;;;;;;;;;;16.60;90.60;;;;;;5131479;27;19966;-69
2022/09/01 01:38:42;;;;;;;;;;;16.60;90.60;;;;;;5113989;27;20043;-70
2022/09/01 01:41:12;;;;;;;;;;;16.60;90.70;;;;;;5118234;27;19929;-70
2022/09/01 01:43:38;;;;;;;;;;;16.50;90.60;;;;;;5132365;27;19972;-70
2022/09/01 01:46:06;;;;;;;;;;;16.50;90.70;;;;;;5116719;27;20347;-70
2022/09/01 01:48:33;;;;;;;;;;;16.60;90.90;;;;;;5120024;27;19934;-70
2022/09/01 01:50:59;;;;;;;;;;;16.50;90.80;;;;;;5117990;27;20011;-71
2022/09/01 01:53:25;;;;;;;;;;;16.50;90.80;;;;;;5132117;27;19919;-70
2022/09/01 01:55:50;;;;;;;;;;;16.50;90.80;;;;;;5131716;27;19964;-70
2022/09/01 01:58:18;;;;;;;;;;;16.50;90.90;;;;;;5117985;27;19927;-70
2022/09/01 02:00:45;;;;;;;;;;;16.50;91.00;;;;;;5127175;27;19926;-70
2022/09/01 02:03:11;;;;;;;;;;;16.50;91.00;;;;;;5121135;27;20381;-70
2022/09/01 02:05:38;;;;;;;;;;;16.50;91.20;;;;;;5128356;27;20339;-70
2022/09/01 02:08:04;;;;;;;;;;;16.50;91.00;;;;;;5108705;27;20386;-71
2022/09/01 02:10:31;;;;;;;;;;;16.50;91.10;;;;;;5131756;27;19923;-70
2022/09/01 02:13:02;;;;;;;;;;;16.40;91.10;;;;;;5122297;27;19930;-70
2022/09/01 02:15:28;;;;;;;;;;;16.40;91.20;;;;;;5131199;27;19959;-70
2022/09/01 02:17:55;;;;;;;;;;;16.40;91.20;;;;;;5122803;27;19920;-70
2022/09/01 02:20:21;;;;;;;;;;;16.40;91.30;;;;;;5096582;28;20014;-70
2022/09/01 02:22:47;;;;;;;;;;;16.40;91.20;;;;;;5130010;27;20001;-70
2022/09/01 02:25:15;;;;;;;;;;;16.40;91.30;;;;;;5126264;27;19924;-70
2022/09/01 02:27:42;;;;;;;;;;;16.40;91.30;;;;;;5126825;27;19923;-70
2022/09/01 02:30:09;;;;;;;;;;;16.40;91.30;;;;;;5104250;28;20381;-70
2022/09/01 02:32:34;;;;;;;;;;;16.40;91.50;;;;;;5093058;27;19923;-71
2022/09/01 02:35:00;;;;;;;;;;;16.40;91.40;;;;;;5104354;28;20412;-69
2022/09/01 02:37:25;;;;;;;;;;;16.40;91.70;;;;;;5110764;28;19920;-70
2022/09/01 02:39:52;;;;;;;;;;;16.30;91.70;;;;;;5098978;27;20314;-70
2022/09/01 02:42:23;;;;;;;;;;;16.40;91.80;;;;;;5127254;27;19949;-70
2022/09/01 02:44:49;;;;;;;;;;;16.40;91.60;;;;;;5130644;27;19926;-70
2022/09/01 02:47:14;;;;;;;;;;;16.40;91.80;;;;;;5112739;27;19919;-71
2022/09/01 02:49:41;;;;;;;;;;;16.30;91.80;;;;;;5110421;28;20450;-71
2022/09/01 02:52:06;;;;;;;;;;;16.30;91.70;;;;;;5123969;27;19920;-70
2022/09/01 02:54:33;;;;;;;;;;;16.30;92.00;;;;;;5110726;28;20296;-70
2022/09/01 02:56:59;;;;;;;;;;;16.30;92.00;;;;;;5111028;27;20332;-70
2022/09/01 02:59:26;;;;;;;;;;;16.30;92.00;;;;;;5122448;27;19926;-70
2022/09/01 03:01:52;;;;;;;;;;;16.30;92.40;;;;;;5128040;27;20332;-70
2022/09/01 03:04:18;;;;;;;;;;;16.30;92.40;;;;;;5098174;28;20559;-70
2022/09/01 03:06:44;;;;;;;;;;;16.30;92.30;;;;;;5126932;27;19973;-71
2022/09/01 03:09:13;;;;;;;;;;;16.30;92.40;;;;;;5130490;27;19924;-71
2022/09/01 03:11:39;;;;;;;;;;;16.30;92.40;;;;;;5130760;27;20054;-71
2022/09/01 03:14:06;;;;;;;;;;;16.30;92.60;;;;;;5129663;28;19927;-70
2022/09/01 03:16:32;;;;;;;;;;;16.30;92.60;;;;;;5129760;28;19929;-70
2022/09/01 03:18:58;;;;;;;;;;;16.30;92.60;;;;;;5127058;28;19976;-70
2022/09/01 03:21:24;;;;;;;;;;;16.30;92.80;;;;;;5117221;28;20269;-70
2022/09/01 03:23:50;;;;;;;;;;;16.30;92.50;;;;;;5118466;28;19926;-70
2022/09/01 03:26:18;;;;;;;;;;;16.20;93.00;;;;;;5128435;28;19971;-70
2022/09/01 03:28:44;;;;;;;;;;;16.20;92.80;;;;;;5130469;28;19967;-70
2022/09/01 03:31:10;;;;;;;;;;;16.20;93.20;;;;;;5111103;27;20645;-70
2022/09/01 03:33:36;;;;;;;;;;;16.20;93.00;;;;;;5110447;28;19945;-70
2022/09/01 03:36:02;;;;;;;;;;;16.20;93.30;;;;;;5128846;28;19923;-70
2022/09/01 03:38:28;;;;;;;;;;;16.20;93.20;;;;;;5130082;28;19926;-71
2022/09/01 03:40:57;;;;;;;;;;;16.20;93.40;;;;;;5130014;27;19919;-71
2022/09/01 03:43:26;;;;;;;;;;;16.20;93.40;;;;;;5118670;27;19927;-70
2022/09/01 03:45:54;;;;;;;;;;;16.20;93.50;;;;;;5133765;27;19923;-70
2022/09/01 03:48:19;;;;;;;;;;;16.20;93.90;;;;;;5114784;27;20048;-70
2022/09/01 03:50:46;;;;;;;;;;;16.20;93.60;;;;;;5114279;27;19998;-70
2022/09/01 03:53:13;;;;;;;;;;;16.20;93.70;;;;;;5102099;27;20563;-69
2022/09/01 03:55:39;;;;;;;;;;;16.20;93.70;;;;;;5134526;27;19920;-70
2022/09/01 03:58:06;;;;;;;;;;;16.20;93.90;;;;;;5133808;27;20458;-70
2022/09/01 04:00:42;;;;;;;;;;;16.20;94.00;;;;;;5121206;27;19924;-71
2022/09/01 04:03:11;;;;;;;;;;;16.20;94.10;;;;;;5121943;27;20418;-69
2022/09/01 04:05:39;;;;;;;;;;;16.20;94.30;;;;;;5132228;27;19919;-70
2022/09/01 04:08:06;;;;;;;;;;;16.20;94.40;;;;;;5113839;27;20007;-70
2022/09/01 04:10:37;;;;;;;;;;;16.20;94.30;;;;;;5106725;28;20339;-71
2022/09/01 04:13:03;;;;;;;;;;;16.20;94.60;;;;;;5112895;28;19919;-70
2022/09/01 04:15:28;;;;;;;;;;;16.20;94.60;;;;;;5134389;27;19919;-71
2022/09/01 04:18:08;;;;;;;;;;;16.20;94.60;;;;;;5147263;27;19962;-71
2022/09/01 04:20:46;;;;;;;;;;;16.20;94.70;;;;;;5135108;27;19945;-70
2022/09/01 04:23:15;;;;;;;;;;;16.20;94.80;;;;;;5142358;27;19919;-71
2022/09/01 04:25:41;;;;;;;;;;;16.20;94.90;;;;;;5127895;27;19920;-71
2022/09/01 04:28:13;;;;;;;;;;;16.10;94.90;;;;;;5117946;27;20014;-71
2022/09/01 04:30:41;;;;;;;;;;;16.20;94.80;;;;;;5120698;27;20019;-70
2022/09/01 04:33:07;;;;;;;;;;;16.10;95.10;;;;;;5141100;27;20354;-70
2022/09/01 04:35:39;;;;;;;;;;;16.10;95.20;;;;;;5140389;27;19919;-70
2022/09/01 04:38:07;;;;;;;;;;;16.10;95.20;;;;;;5122471;28;19974;-71
2022/09/01 04:40:37;;;;;;;;;;;16.10;95.30;;;;;;5116905;28;19938;-71
2022/09/01 04:43:03;;;;;;;;;;;16.10;95.50;;;;;;5119699;28;19919;-70
2022/09/01 04:45:30;;;;;;;;;;;16.10;95.60;;;;;;5137442;27;19919;-71
2022/09/01 04:47:57;;;;;;;;;;;16.10;95.50;;;;;;5142732;27;19919;-71
2022/09/01 04:50:24;;;;;;;;;;;16.10;95.80;;;;;;5141479;27;20343;-71
2022/09/01 04:52:50;;;;;;;;;;;16.00;95.80;;;;;;5142964;27;19927;-71
2022/09/01 04:55:16;;;;;;;;;;;16.10;96.20;;;;;;5138601;27;19920;-72
2022/09/01 04:57:48;;;;;;;;;;;16.10;96.20;;;;;;5144476;27;19919;-71
2022/09/01 05:00:21;;;;;;;;;;;16.10;96.20;;;;;;5143290;27;19943;-71
2022/09/01 05:02:47;;;;;;;;;;;16.10;96.20;;;;;;5151800;27;19987;-71
2022/09/01 05:05:13;;;;;;;;;;;16.10;96.40;;;;;;5120264;28;19958;-73
2022/09/01 05:07:38;;;;;;;;;;;16.20;96.40;;;;;;5130967;27;20374;-70
2022/09/01 05:10:05;;;;;;;;;;;16.10;96.50;;;;;;5142703;27;19983;-71
2022/09/01 05:12:30;;;;;;;;;;;16.20;96.80;;;;;;5144653;27;19934;-71
2022/09/01 05:14:56;;;;;;;;;;;16.20;96.80;;;;;;5128043;27;19919;-73
2022/09/01 05:17:24;;;;;;;;;;;16.20;96.70;;;;;;5131050;27;19920;-69
2022/09/01 05:19:50;;;;;;;;;;;16.20;96.80;;;;;;5115794;28;19973;-70
2022/09/01 05:22:20;;;;;;;;;;;16.20;96.90;;;;;;5136610;27;19920;-70
2022/09/01 05:24:46;;;;;;;;;;;16.30;97.10;;;;;;5136292;27;19920;-71
2022/09/01 05:27:13;;;;;;;;;;;16.20;97.10;;;;;;5129078;27;19920;-71
2022/09/01 05:29:40;;;;;;;;;;;16.20;97.10;;;;;;5127498;27;19926;-69
2022/09/01 05:32:08;;;;;;;;;;;16.30;97.10;;;;;;5115020;27;20388;-72
2022/09/01 05:34:36;;;;;;;;;;;16.30;97.20;;;;;;5115198;27;19919;-71
2022/09/01 05:37:02;;;;;;;;;;;16.40;97.30;;;;;;5083245;27;19927;-70
2022/09/01 05:39:28;;;;;;;;;;;16.50;97.30;;;;;;5132888;27;19919;-70
2022/09/01 05:41:54;;;;;;;;;;;16.60;97.20;;;;;;5119311;27;19927;-71
2022/09/01 05:44:23;;;;;;;;;;;16.60;97.40;;;;;;5118263;27;20180;-70
2022/09/01 05:46:49;;;;;;;;;;;16.70;97.40;;;;;;5119024;27;19934;-70
2022/09/01 05:49:17;;;;;;;;;;;16.70;97.30;;;;;;5125278;27;19919;-70
2022/09/01 05:51:51;;;;;;;;;;;16.70;97.30;;;;;;5124137;27;20472;-70
2022/09/01 05:54:17;;;;;;;;;;;16.80;97.20;;;;;;5112804;27;19927;-72
2022/09/01 05:56:43;;;;;;;;;;;16.80;97.10;;;;;;5127329;27;19942;-71
2022/09/01 05:59:10;;;;;;;;;;;16.80;97.10;;;;;;5127478;27;19926;-71
2022/09/01 06:01:40;;;;;;;;;;;16.80;97.00;;;;;;5086413;27;19920;-71
2022/09/01 06:04:06;;;;;;;;;;;16.90;97.10;;;;;;5124994;27;19930;-71
2022/09/01 06:06:39;;;;;;;;;;;16.90;97.10;;;;;;5118885;27;20292;-71
2022/09/01 06:09:06;;;;;;;;;;;16.90;96.80;;;;;;5103024;28;20048;-71
2022/09/01 06:11:32;;;;;;;;;;;16.90;96.80;;;;;;5111272;27;20365;-71
2022/09/01 06:13:58;;;;;;;;;;;16.80;97.00;;;;;;5123407;27;19926;-71
2022/09/01 06:16:24;;;;;;;;;;;16.70;97.00;;;;;;5120527;27;19919;-71
2022/09/01 06:18:56;;;;;;;;;;;16.70;97.10;;;;;;5123622;27;19949;-70
2022/09/01 06:21:23;;;;;;;;;;;16.60;97.10;;;;;;5121136;27;19919;-71
2022/09/01 06:23:50;;;;;;;;;;;16.60;97.20;;;;;;5107524;28;20393;-70
2022/09/01 06:26:16;;;;;;;;;;;16.50;97.20;;;;;;5111348;28;20339;-71
2022/09/01 06:28:42;;;;;;;;;;;16.50;97.20;;;;;;5120465;27;19966;-71
2022/09/01 06:31:08;;;;;;;;;;;16.40;97.40;;;;;;5119458;27;20308;-71
2022/09/01 06:33:34;;;;;;;;;;;16.30;97.40;;;;;;5117750;27;20026;-71
2022/09/01 06:36:02;;;;;;;;;;;16.30;97.60;;;;;;5118580;27;19966;-70
2022/09/01 06:38:28;;;;;;;;;;;16.40;97.90;;;;;;5121860;27;19919;-70
2022/09/01 06:41:02;;;;;;;;;;;16.30;98.00;;;;;;5122350;27;19925;-71
2022/09/01 06:43:29;;;;;;;;;;;16.40;98.00;;;;;;5121835;27;19966;-71
2022/09/01 06:45:55;;;;;;;;;;;16.40;98.00;;;;;;5122241;27;19919;-71
2022/09/01 06:48:22;;;;;;;;;;;16.40;98.00;;;;;;5117177;27;19993;-71
2022/09/01 06:50:48;;;;;;;;;;;16.50;98.00;;;;;;5120893;27;19920;-71
2022/09/01 06:53:17;;;;;;;;;;;16.60;98.10;;;;;;5122397;27;19980;-70
2022/09/01 06:55:45;;;;;;;;;;;16.80;98.20;;;;;;5122279;27;19928;-71
2022/09/01 06:58:12;;;;;;;;;;;16.80;97.90;;;;;;5121500;27;20377;-71
2022/09/01 07:00:40;;;;;;;;;;;16.90;98.00;;;;;;5118786;27;19965;-71
2022/09/01 07:03:08;;;;;;;;;;;17.00;98.00;;;;;;5129979;27;19923;-71
2022/09/01 07:05:37;;;;;;;;;;;17.00;97.50;;;;;;5104499;28;19920;-71
2022/09/01 07:08:06;;;;;;;;;;;17.10;97.20;;;;;;5091549;28;19928;-70
2022/09/01 07:10:32;;;;;;;;;;;17.20;97.10;;;;;;5124230;27;19969;-70
2022/09/01 07:13:00;;;;;;;;;;;17.20;97.20;;;;;;5105663;28;19927;-71
2022/09/01 07:15:26;;;;;;;;;;;17.20;96.90;;;;;;5129287;27;20392;-70
2022/09/01 07:17:54;;;;;;;;;;;17.30;96.90;;;;;;5128519;27;19980;-71
2022/09/01 07:20:21;;;;;;;;;;;17.40;97.20;;;;;;5123279;28;20373;-71
2022/09/01 07:22:47;;;;;;;;;;;17.50;96.90;;;;;;5110087;28;20344;-71
2022/09/01 07:25:13;;;;;;;;;;;17.60;97.00;;;;;;5124877;28;20010;-70
2022/09/01 07:27:39;;;;;;;;;;;17.60;96.90;;;;;;5111121;28;19927;-71
2022/09/01 07:30:08;;;;;;;;;;;17.70;96.50;;;;;;5106590;28;20039;-71
2022/09/01 07:32:35;;;;;;;;;;;17.80;96.30;;;;;;5122746;28;20004;-70
2022/09/01 07:35:01;;;;;;;;;;;17.80;96.60;;;;;;5119854;28;19965;-71
2022/09/01 07:37:27;;;;;;;;;;;17.90;95.90;;;;;;5128532;28;19919;-72
2022/09/01 07:39:54;;;;;;;;;;;17.90;96.10;;;;;;5122244;28;20399;-71
2022/09/01 07:42:20;;;;;;;;;;;18.00;96.30;;;;;;5127644;28;19924;-71
2022/09/01 07:44:46;;;;;;;;;;;18.10;96.20;;;;;;5119814;28;19980;-71
2022/09/01 07:47:14;;;;;;;;;;;18.20;96.10;;;;;;5119980;28;19923;-71
2022/09/01 07:49:40;;;;;;;;;;;18.20;95.90;;;;;;5116553;28;19927;-72
2022/09/01 07:52:06;;;;;;;;;;;18.20;95.70;;;;;;5110133;28;19946;-72
2022/09/01 07:54:33;;;;;;;;;;;18.30;95.70;;;;;;5123872;28;19965;-72
2022/09/01 07:56:58;;;;;;;;;;;18.30;95.80;;;;;;5120542;28;20377;-72
2022/09/01 07:59:26;;;;;;;;;;;18.30;95.70;;;;;;5105816;28;19919;-70
2022/09/01 08:01:52;;;;;;;;;;;18.40;95.90;;;;;;5114204;28;19973;-72
2022/09/01 08:04:21;;;;;;;;;;;18.60;96.00;;;;;;5118543;28;19920;-72
2022/09/01 08:06:47;;;;;;;;;;;18.80;95.50;;;;;;5126797;28;19919;-72
2022/09/01 08:09:12;;;;;;;;;;;18.90;95.40;;;;;;5118330;28;19987;-71
2022/09/01 08:11:38;;;;;;;;;;;19.10;95.20;;;;;;5102578;28;19971;-71
2022/09/01 08:14:03;;;;;;;;;;;19.20;94.90;;;;;;5105228;28;19919;-71
2022/09/01 08:16:30;;;;;;;;;;;19.20;94.50;;;;;;5126104;28;19923;-72
2022/09/01 08:18:55;;;;;;;;;;;19.20;94.10;;;;;;5111200;28;20308;-71
2022/09/01 08:21:22;;;;;;;;;;;19.10;94.10;;;;;;5114767;28;19927;-72
2022/09/01 08:23:51;;;;;;;;;;;19.00;94.20;;;;;;5114554;28;19926;-72
2022/09/01 08:26:18;;;;;;;;;;;18.90;94.60;;;;;;5104180;28;19926;-71
2022/09/01 08:28:44;;;;;;;;;;;18.90;94.90;;;;;;5125103;27;20016;-71
2022/09/01 08:31:10;;;;;;;;;;;19.00;94.40;;;;;;5120242;27;20238;-71
2022/09/01 08:33:39;;;;;;;;;;;19.10;94.50;;;;;;5123016;27;19926;-71
2022/09/01 08:36:09;;;;;;;;;;;19.20;94.40;;;;;;5124517;27;19924;-72
2022/09/01 08:38:35;;;;;;;;;;;19.30;94.30;;;;;;5113450;27;19924;-71
2022/09/01 08:41:04;;;;;;;;;;;19.40;94.00;;;;;;5119163;27;19942;-72
2022/09/01 08:43:40;;;;;;;;;;;19.50;94.00;;;;;;5111712;27;20412;-72
2022/09/01 08:46:23;;;;;;;;;;;19.50;93.70;;;;;;5121764;27;19966;-71
2022/09/01 08:48:53;;;;;;;;;;;19.60;93.60;;;;;;5121719;27;20018;-71
2022/09/01 08:51:30;;;;;;;;;;;19.70;93.40;;;;;;5122687;27;20013;-72
2022/09/01 08:54:00;;;;;;;;;;;19.80;93.30;;;;;;5113242;27;19919;-71
2022/09/01 08:56:25;;;;;;;;;;;19.90;93.50;;;;;;5116469;27;19965;-72
2022/09/01 08:58:51;;;;;;;;;;;20.00;93.30;;;;;;5121036;27;19966;-71
2022/09/01 09:01:26;;;;;;;;;;;20.00;92.90;;;;;;5131976;27;20022;-71
2022/09/01 09:04:00;;;;;;;;;;;20.20;93.10;;;;;;5130750;27;20342;-72
2022/09/01 09:06:26;;;;;;;;;;;20.20;92.60;;;;;;5099429;28;19920;-72
2022/09/01 09:08:53;;;;;;;;;;;20.30;92.40;;;;;;5118895;27;19937;-71
2022/09/01 09:11:22;;;;;;;;;;;20.40;92.40;;;;;;5112539;27;19931;-72
2022/09/01 09:14:06;;;;;;;;;;;20.60;91.90;;;;;;5130872;27;19919;-71
2022/09/01 09:16:42;;;;;;;;;;;20.60;92.00;;;;;;5120471;27;20399;-71
2022/09/01 09:19:15;;;;;;;;;;;20.70;91.70;;;;;;5118107;27;20645;-72
2022/09/01 09:21:42;;;;;;;;;;;20.90;91.70;;;;;;5112955;27;20305;-71
2022/09/01 09:24:27;;;;;;;;;;;21.60;91.00;;;;;;5127966;27;19923;-72
2022/09/01 09:26:54;;;;;;;;;;;22.40;90.00;;;;;;5099596;27;20328;-70
2022/09/01 09:29:21;;;;;;;;;;;23.20;85.20;;;;;;5124628;27;19923;-70
2022/09/01 09:31:50;;;;;;;;;;;23.80;85.30;;;;;;5125723;27;20313;-70
2022/09/01 09:34:31;;;;;;;;;;;24.30;84.70;;;;;;5125663;27;19926;-71
2022/09/01 09:37:16;;;;;;;;;;;25.00;84.30;;;;;;5130029;27;19920;-71
2022/09/01 09:39:42;;;;;;;;;;;25.50;80.30;;;;;;5119264;27;19965;-70
2022/09/01 09:42:10;;;;;;;;;;;25.80;77.20;;;;;;5111619;27;19923;-71
2022/09/01 09:44:47;;;;;;;;;;;26.10;78.70;;;;;;5121091;27;20426;-71
2022/09/01 09:47:52;;;;;;;;;;;26.50;76.10;;;;;;5130288;27;19919;-71
2022/09/01 09:50:23;;;;;;;;;;;26.50;71.20;;;;;;5046751;28;20047;-71
2022/09/01 09:52:51;;;;;;;3.63;0.32;;;26.80;74.30;;;;;;5045776;28;19920;-71
2022/09/01 09:55:28;;;;;;;1.45;0.55;;;27.10;72.90;;;;;;5085136;27;20556;-71
2022/09/01 09:57:58;;;;;;;1.00;0.22;;;27.30;71.80;;;;;;5128417;27;20481;-71
2022/09/01 10:00:35;;;;;;;1.52;0.30;;;27.50;72.80;;;;;;5118470;27;20422;-70
2022/09/01 10:03:07;;;;;;;0.63;0.20;;;27.60;69.60;;;;;;5128816;27;21040;-70
2022/09/01 10:05:43;;;;;;;2.00;0.20;;;27.50;68.30;;;;;;5119266;27;20479;-71
2022/09/01 10:08:26;;;;;;;2.13;0.20;;;27.60;68.50;;;;;;5124498;27;20426;-70
2022/09/01 10:10:53;;;;;;;1.33;0.20;;;27.80;67.00;;;;;;5125320;27;20031;-70
2022/09/01 10:13:22;;;;;;;0.68;0.20;;;28.00;66.80;;;;;;5121725;27;20140;-71
2022/09/01 10:15:53;;;;;;;1.30;0.40;;;28.10;67.30;;;;;;5106384;27;20431;-70
2022/09/01 10:18:23;;;;;;;1.27;0.20;;;28.30;65.70;;;;;;5116655;27;20408;-70
2022/09/01 10:20:59;;;;;;;;;;;28.50;66.00;;;;;;5111265;28;20038;-71
2022/09/01 10:23:26;;;;;;;;;;;28.90;65.40;;;;;;5123319;27;19920;-71
2022/09/01 10:25:58;;;;;;;2.17;0.32;;;29.00;64.60;;;;;;5129535;27;19927;-71
2022/09/01 10:28:25;;;;;;;0.40;0.10;;;29.00;63.30;;;;;;5115149;27;20040;-71
2022/09/01 10:30:52;;;;;;;2.88;0.30;;;29.00;63.20;;;;;;5123447;27;20498;-71
2022/09/01 10:33:20;;;;;;;1.25;0.30;;;29.10;60.10;;;;;;5117970;27;20039;-71
2022/09/01 10:35:50;;;;;;;2.28;0.40;;;29.00;59.10;;;;;;5106126;27;20418;-71
2022/09/01 10:38:25;;;;;;;4.10;0.85;;;28.70;61.60;;;;;;5122899;27;20407;-71
2022/09/01 10:41:06;;;;;;;1.50;0.30;;;28.80;62.30;;;;;;5120217;27;20412;-71
2022/09/01 10:43:39;;;;;;;1.73;0.50;;;29.10;63.60;;;;;;5118940;27;20403;-73
2022/09/01 10:46:19;;;;;;;1.67;0.28;;;29.30;61.60;;;;;;5126320;27;20063;-71
2022/09/01 10:48:53;;;;;;;0.68;0.20;;;29.50;58.10;;;;;;5126448;27;20543;-72
2022/09/01 10:51:18;;;;;;;;;;;29.40;59.90;;;;;;5123983;27;20050;-72
2022/09/01 10:53:52;;;;;;;1.25;0.20;;;29.60;60.90;;;;;;5128064;27;19919;-72
2022/09/01 10:56:26;;;;;;;1.58;0.22;;;29.90;61.20;;;;;;5124640;27;20403;-72
2022/09/01 10:58:58;;;;;;;1.17;0.30;;;30.20;59.40;;;;;;5120007;27;20417;-71
2022/09/01 11:01:39;;;;;;;1.08;0.22;;;30.50;59.20;;;;;;5126402;27;20478;-72
2022/09/01 11:04:06;;;;;;;2.15;0.30;;;30.60;58.00;;;;;;5119861;27;20039;-70
2022/09/01 11:06:51;;;;;;;0.60;0.20;;;30.70;56.90;;;;;;5113768;27;20043;-71
2022/09/01 11:09:40;;;;;;;3.00;0.20;;;30.60;57.10;;;;;;5098892;28;20074;-72
2022/09/01 11:12:15;;;;;;;2.67;0.20;;;30.70;55.70;;;;;;5110873;28;20039;-71
2022/09/01 11:14:52;;;;;;;;;;;30.90;55.50;;;;;;5130092;27;20070;-72
2022/09/01 11:17:22;;;;;;;;;;;31.00;55.40;;;;;;5127437;28;19919;-72
2022/09/01 11:20:09;;;;;;;1.85;0.35;;;31.10;52.00;;;;;;5127331;28;20385;-71
2022/09/01 11:22:57;;;;;;;0.80;0.10;;;31.00;52.80;;;;;;5126635;28;20422;-71
2022/09/01 11:25:43;;;;;;;0.70;0.20;;;30.90;53.70;;;;;;5125522;27;20814;-71
2022/09/01 11:28:15;;;;;;;0.70;0.10;;;30.90;50.70;;;;;;5097641;28;20429;-71
2022/09/01 11:30:53;;;;;;;0.88;0.10;;;31.00;53.60;;;;;;5115639;28;20427;-71
2022/09/01 11:33:49;;;;;;;0.65;0.20;;;31.10;52.60;;;;;;5107393;28;20447;-71
2022/09/01 11:36:28;;;;;;;1.20;0.20;;;31.30;51.60;;;;;;5111729;28;20478;-71
2022/09/01 11:38:58;;;;;;;;;;;31.50;50.30;;;;;;5112227;28;20152;-71
2022/09/01 11:41:44;;;;;;;;;;;31.60;50.30;;;;;;5129010;27;20448;-71
2022/09/01 11:44:11;;;;;;;;;;;31.70;52.40;;;;;;5097878;28;19924;-71
2022/09/01 11:46:42;;;;;;;;;;;31.80;51.60;;;;;;5120406;28;20014;-71
2022/09/01 11:49:22;;;;;;;;;;;31.80;50.10;;;;;;5122983;28;21048;-71
2022/09/01 11:51:47;;;;;;;;;;;31.70;51.20;;;;;;5117333;28;19920;-71
2022/09/01 11:54:13;;;;;;;;;;;31.80;50.90;;;;;;5122622;28;20688;-72
2022/09/01 11:56:39;;;;;;;;;;;31.80;50.20;;;;;;5110308;28;19926;-71
2022/09/01 11:59:04;;;;;;;1.27;0.20;;;31.80;49.70;;;;;;5118936;28;19923;-71
2022/09/01 12:01:36;;;;;;;1.40;0.30;;;31.80;50.00;;;;;;5121577;28;20424;-71
2022/09/01 12:04:26;;;;;;;0.83;0.13;;;31.90;49.80;;;;;;5112584;27;20429;-73
2022/09/01 12:07:01;;;;;;;0.57;0.20;;;32.20;50.00;;;;;;5120190;27;20468;-71
2022/09/01 12:09:39;;;;;;;;;;;32.00;48.10;;;;;;5130649;27;20049;-71
2022/09/01 12:12:05;;;;;;;;;;;32.00;47.00;;;;;;5119447;27;19919;-72
2022/09/01 12:14:30;;;;;;;;;;;32.00;46.60;;;;;;5123017;27;20446;-72
2022/09/01 12:16:58;;;;;;;;;;;31.90;46.40;;;;;;5129658;27;19919;-71
2022/09/01 12:19:26;;;;;;;;;;;31.90;47.50;;;;;;5124938;27;19919;-72
2022/09/01 12:22:05;;;;;;;1.35;0.20;;;31.90;46.90;;;;;;5116452;27;19919;-71
2022/09/01 12:24:34;;;;;;;1.52;0.40;;;31.90;48.20;;;;;;5112123;27;20413;-72
2022/09/01 12:27:00;;;;;;;;;;;31.90;48.00;;;;;;5126278;27;20069;-71
2022/09/01 12:29:25;;;;;;;;;;;32.00;47.70;;;;;;5119684;27;19962;-72
2022/09/01 12:31:52;;;;;;;;;;;32.00;45.80;;;;;;5123628;27;20233;-72
2022/09/01 12:34:35;;;;;;;0.75;0.10;;;31.90;47.50;;;;;;5117468;27;19920;-71
2022/09/01 12:37:15;;;;;;;1.17;0.20;;;31.80;48.20;;;;;;5119761;27;20789;-71
2022/09/01 12:39:45;;;;;;;;;;;32.00;47.80;;;;;;5125839;27;20512;-71
2022/09/01 12:42:20;;;;;;;;;;;32.20;46.90;;;;;;5129842;27;20058;-71
2022/09/01 12:44:46;;;;;;;;;;;32.30;45.90;;;;;;5118594;27;20332;-71
2022/09/01 12:47:35;;;;;;;;;;;32.50;46.70;;;;;;5118452;27;19966;-71
2022/09/01 12:50:05;;;;;;;;;;;32.70;45.80;;;;;;5101863;27;19924;-71
2022/09/01 12:52:32;;;;;;;;;;;32.80;46.40;;;;;;5124452;27;20009;-72
2022/09/01 12:54:58;;;;;;;;;;;32.90;45.00;;;;;;5119798;27;19968;-72
2022/09/01 12:57:28;;;;;;;;;;;32.60;44.90;;;;;;5115628;27;19923;-72
2022/09/01 13:00:07;;;;;;;;;;;32.20;45.00;;;;;;5112418;27;20327;-71
2022/09/01 13:02:34;;;;;;;;;;;32.40;46.30;;;;;;5133151;27;19926;-72
2022/09/01 13:05:18;;;;;;;;;;;32.60;45.60;;;;;;5141900;27;19919;-71
2022/09/01 13:07:43;;;;;;;;;;;32.40;45.10;;;;;;5136983;27;19923;-72
2022/09/01 13:10:09;;;;;;;;;;;32.40;45.30;;;;;;5146735;27;20427;-71
2022/09/01 13:12:40;;;;;;;;;;;32.40;44.10;;;;;;5141381;27;19920;-72
2022/09/01 13:15:05;;;;;;;;;;;32.40;45.30;;;;;;5143553;27;19924;-72
2022/09/01 13:17:31;;;;;;;;;;;32.70;43.10;;;;;;5127786;27;20995;-72
2022/09/01 13:19:56;;;;;;;;;;;32.80;43.50;;;;;;5129113;27;20358;-71
2022/09/01 13:22:22;;;;;;;;;;;32.40;44.00;;;;;;5124550;27;19920;-72
2022/09/01 13:24:48;;;;;;;;;;;32.50;44.60;;;;;;5112614;27;19933;-71
2022/09/01 13:27:13;;;;;;;;;;;32.80;44.60;;;;;;5112759;27;20396;-71
2022/09/01 13:29:40;;;;;;;0.60;0.10;;;33.20;45.40;;;;;;5100325;27;20349;-71
2022/09/01 13:32:07;;;;;;;;;;;33.60;45.50;;;;;;5123384;27;20576;-72
2022/09/01 13:34:34;;;;;;;0.85;0.10;;;33.90;44.80;;;;;;5130855;27;19919;-72
2022/09/01 13:36:59;;;;;;;0.35;0.10;;;34.00;44.00;;;;;;5129677;27;20042;-73
2022/09/01 13:39:25;;;;;;;;;;;34.20;43.50;;;;;;5123478;27;20051;-71
2022/09/01 13:41:51;;;;;;;;;;;34.40;43.80;;;;;;5127669;27;19919;-72
2022/09/01 13:44:17;;;;;;;0.85;0.20;;;34.60;43.30;;;;;;5125586;27;20427;-71
2022/09/01 13:46:43;;;;;;;1.27;0.13;;;34.50;42.30;;;;;;5118410;27;20165;-72
2022/09/01 13:49:09;;;;;;;0.90;0.10;;;34.30;42.00;;;;;;5122313;27;20047;-71
2022/09/01 13:51:35;;;;;;;1.35;0.10;;;34.20;42.90;;;;;;5116354;27;20555;-72
2022/09/01 13:54:01;;;;;;;0.93;0.13;;;34.20;42.90;;;;;;5122673;27;20036;-72
2022/09/01 13:56:27;;;;;;;0.77;0.13;;;34.30;42.90;;;;;;5122059;27;20907;-71
2022/09/01 13:58:53;;;;;;;0.40;0.20;;;34.40;43.20;;;;;;5115569;27;20933;-71
2022/09/01 14:01:20;;;;;;;1.20;0.10;;;34.30;41.20;;;;;;5120100;27;20472;-72
2022/09/01 14:03:47;;;;;;;0.80;0.17;;;34.10;42.20;;;;;;5125329;27;20536;-71
2022/09/01 14:06:13;;;;;;;1.00;0.10;;;34.20;42.50;;;;;;5139488;27;20439;-71
2022/09/01 14:08:39;;;;;;;0.50;0.10;;;34.40;42.10;;;;;;5146177;27;20399;-71
2022/09/01 14:11:05;;;;;;;;;;;34.60;41.90;;;;;;5139355;27;20055;-71
2022/09/01 14:13:31;;;;;;;;;;;34.60;41.60;;;;;;5141833;27;19981;-71